Time;durP1;ratioP1;P1;durP2;ratioP2;P2;SDS_P1;SDS_P2;PMS_P1;PMS_P2;Temp;Humidity;BMP_temperature;BMP_pressure;BME280_temperature;BME280_humidity;BME280_pressure;Samples;Min_cycle;Max_cycle;Signal;HPM_P1;HPM_P2
2024/03/07 00:02:10;;;;;;;25.10;13.57;;;;;;;;;;5094437;28;20069;-70
2024/03/07 00:04:36;;;;;;;26.03;14.03;;;;;;;;;;5074176;28;20481;-69
2024/03/07 00:07:05;;;;;;;29.73;12.73;;;;;;;;;;5088568;28;20106;-69
2024/03/07 00:09:34;;;;;;;23.67;12.87;;;;;;;;;;5088467;28;20621;-70
2024/03/07 00:12:01;;;;;;;26.00;12.83;;;;;;;;;;5088347;28;20532;-69
2024/03/07 00:14:27;;;;;;;29.27;14.37;;;;;;;;;;5088396;28;20016;-69
2024/03/07 00:17:01;;;;;;;29.67;13.93;;;;;;;;;;5091262;28;20399;-72
2024/03/07 00:19:27;;;;;;;28.10;12.77;;;;;;;;;;5092485;28;20023;-69
2024/03/07 00:21:53;;;;;;;31.43;14.30;;;;;;;;;;5092489;28;20023;-70
2024/03/07 00:24:20;;;;;;;25.20;12.63;;;;;;;;;;5075581;28;20057;-70
2024/03/07 00:26:46;;;;;;;27.93;13.60;;;;;;;;;;5092464;28;20083;-70
2024/03/07 00:29:11;;;;;;;27.37;11.80;;;;;;;;;;5092329;28;20031;-68
2024/03/07 00:31:38;;;;;;;31.20;13.20;;;;;;;;;;5093515;28;20024;-70
2024/03/07 00:34:03;;;;;;;27.87;12.70;;;;;;;;;;5093569;28;20502;-69
2024/03/07 00:36:30;;;;;;;26.07;13.50;;;;;;;;;;5093283;28;20036;-69
2024/03/07 00:38:56;;;;;;;29.37;12.97;;;;;;;;;;5092456;28;20020;-69
2024/03/07 00:41:23;;;;;;;24.90;12.67;;;;;;;;;;5092010;28;20023;-70
2024/03/07 00:43:48;;;;;;;26.30;13.20;;;;;;;;;;5092090;28;20024;-70
2024/03/07 00:46:14;;;;;;;24.07;11.63;;;;;;;;;;5093390;28;20490;-70
2024/03/07 00:48:40;;;;;;;22.50;11.57;;;;;;;;;;5092196;28;20511;-71
2024/03/07 00:51:05;;;;;;;24.53;11.90;;;;;;;;;;5091933;28;20052;-69
2024/03/07 00:53:31;;;;;;;25.40;11.70;;;;;;;;;;5093213;28;20051;-68
2024/03/07 00:55:57;;;;;;;22.33;12.30;;;;;;;;;;5093332;28;20106;-69
2024/03/07 00:58:24;;;;;;;31.77;13.30;;;;;;;;;;5093448;28;20015;-69
2024/03/07 01:00:51;;;;;;;24.77;11.07;;;;;;;;;;5093101;28;20020;-72
2024/03/07 01:03:17;;;;;;;26.10;12.53;;;;;;;;;;5091770;28;20024;-70
2024/03/07 01:05:44;;;;;;;28.83;12.07;;;;;;;;;;5106312;28;20052;-70
2024/03/07 01:08:09;;;;;;;23.47;12.10;;;;;;;;;;5114002;28;20024;-69
2024/03/07 01:10:37;;;;;;;24.53;12.20;;;;;;;;;;5113614;28;20349;-70
2024/03/07 01:13:05;;;;;;;20.63;11.33;;;;;;;;;;5095191;28;20027;-69
2024/03/07 01:15:32;;;;;;;23.97;11.90;;;;;;;;;;5113297;28;20535;-69
2024/03/07 01:17:58;;;;;;;25.67;11.37;;;;;;;;;;5095182;28;20349;-70
2024/03/07 01:20:25;;;;;;;25.93;11.83;;;;;;;;;;5094874;28;20031;-70
2024/03/07 01:22:53;;;;;;;26.57;12.03;;;;;;;;;;5113343;28;20093;-68
2024/03/07 01:25:18;;;;;;;26.23;12.70;;;;;;;;;;5094837;28;20026;-70
2024/03/07 01:27:45;;;;;;;21.43;11.77;;;;;;;;;;5112402;28;20031;-69
2024/03/07 01:30:11;;;;;;;24.63;12.10;;;;;;;;;;5113150;28;20035;-71
2024/03/07 01:32:36;;;;;;;26.13;13.23;;;;;;;;;;5113040;28;20384;-69
2024/03/07 01:35:02;;;;;;;22.67;10.93;;;;;;;;;;5094076;28;20024;-68
2024/03/07 01:37:29;;;;;;;24.10;11.93;;;;;;;;;;5112477;28;20026;-69
2024/03/07 01:39:54;;;;;;;27.03;13.50;;;;;;;;;;5094435;28;20034;-68
2024/03/07 01:42:20;;;;;;;23.43;12.03;;;;;;;;;;5094199;28;20463;-69
2024/03/07 01:44:46;;;;;;;26.40;11.47;;;;;;;;;;5112767;28;20031;-69
2024/03/07 01:47:15;;;;;;;29.83;13.20;;;;;;;;;;5112460;28;20024;-68
2024/03/07 01:49:41;;;;;;;25.50;12.70;;;;;;;;;;5112740;28;20023;-70
2024/03/07 01:52:07;;;;;;;30.80;13.13;;;;;;;;;;5094359;28;20043;-69
2024/03/07 01:54:34;;;;;;;27.10;12.10;;;;;;;;;;5103431;27;20471;-69
2024/03/07 01:57:01;;;;;;;24.93;11.27;;;;;;;;;;5133498;27;20045;-70
2024/03/07 01:59:30;;;;;;;26.50;12.87;;;;;;;;;;5114714;27;20050;-69
2024/03/07 02:01:56;;;;;;;29.47;12.47;;;;;;;;;;5097802;27;20394;-68
2024/03/07 02:04:23;;;;;;;28.40;12.03;;;;;;;;;;5113974;27;20015;-68
2024/03/07 02:06:50;;;;;;;27.37;12.60;;;;;;;;;;5114311;27;20054;-70
2024/03/07 02:09:17;;;;;;;27.97;12.80;;;;;;;;;;5114028;27;20083;-69
2024/03/07 02:11:42;;;;;;;23.57;12.63;;;;;;;;;;5132913;27;20023;-70
2024/03/07 02:14:08;;;;;;;23.73;12.83;;;;;;;;;;5132839;27;20026;-69
2024/03/07 02:16:33;;;;;;;24.77;12.30;;;;;;;;;;5114178;27;20497;-69
2024/03/07 02:18:59;;;;;;;29.27;13.43;;;;;;;;;;5114110;27;20028;-70
2024/03/07 02:21:25;;;;;;;25.93;11.90;;;;;;;;;;5113975;27;20483;-70
2024/03/07 02:23:51;;;;;;;26.17;12.53;;;;;;;;;;5114233;27;20015;-70
2024/03/07 02:26:16;;;;;;;25.10;12.53;;;;;;;;;;5132411;27;20048;-69
2024/03/07 02:28:42;;;;;;;24.43;11.77;;;;;;;;;;5114040;27;20023;-69
2024/03/07 02:31:07;;;;;;;26.30;12.40;;;;;;;;;;5114344;27;20031;-69
2024/03/07 02:33:33;;;;;;;24.93;12.13;;;;;;;;;;5097623;27;20038;-69
2024/03/07 02:35:58;;;;;;;23.13;11.30;;;;;;;;;;5132495;27;20030;-69
2024/03/07 02:38:24;;;;;;;27.37;11.93;;;;;;;;;;5112465;28;20019;-69
2024/03/07 02:40:50;;;;;;;23.70;11.73;;;;;;;;;;5113577;27;20106;-69
2024/03/07 02:43:15;;;;;;;25.40;13.00;;;;;;;;;;5099049;28;20479;-69
2024/03/07 02:45:41;;;;;;;26.23;12.63;;;;;;;;;;5111588;28;20024;-69
2024/03/07 02:48:09;;;;;;;48.17;14.53;;;;;;;;;;5092889;28;20030;-70
2024/03/07 02:50:37;;;;;;;22.63;11.70;;;;;;;;;;5092790;28;20082;-69
2024/03/07 02:53:07;;;;;;;24.27;11.33;;;;;;;;;;5092776;28;20058;-68
2024/03/07 02:55:33;;;;;;;21.20;11.40;;;;;;;;;;5111217;28;20100;-68
2024/03/07 02:58:00;;;;;;;23.77;11.90;;;;;;;;;;5111410;28;20040;-69
2024/03/07 03:00:32;;;;;;;25.90;11.77;;;;;;;;;;5092700;28;20051;-68
2024/03/07 03:02:57;;;;;;;19.13;10.30;;;;;;;;;;5092812;28;20059;-69
2024/03/07 03:05:23;;;;;;;23.57;11.63;;;;;;;;;;5092368;28;20503;-69
2024/03/07 03:07:54;;;;;;;22.53;11.70;;;;;;;;;;5110941;28;20042;-70
2024/03/07 03:10:25;;;;;;;27.02;12.80;;;;;;;;;;5110664;28;20067;-68
2024/03/07 03:12:58;;;;;;;20.63;11.43;;;;;;;;;;5111281;28;20068;-70
2024/03/07 03:15:24;;;;;;;22.97;11.40;;;;;;;;;;5110918;28;20440;-70
2024/03/07 03:17:51;;;;;;;23.47;11.83;;;;;;;;;;5075442;28;20126;-71
2024/03/07 03:20:33;;;;;;;21.03;12.30;;;;;;;;;;5092349;28;20035;-70
2024/03/07 03:23:00;;;;;;;21.85;11.77;;;;;;;;;;5093734;28;20035;-68
2024/03/07 03:25:26;;;;;;;20.63;10.83;;;;;;;;;;5092679;28;20360;-69
2024/03/07 03:27:56;;;;;;;24.00;11.73;;;;;;;;;;5093006;28;20031;-69
2024/03/07 03:30:21;;;;;;;23.53;11.50;;;;;;;;;;5110903;28;20375;-70
2024/03/07 03:32:47;;;;;;;25.50;12.53;;;;;;;;;;5111064;28;20024;-69
2024/03/07 03:35:15;;;;;;;24.03;11.47;;;;;;;;;;5111877;28;20028;-69
2024/03/07 03:37:43;;;;;;;27.00;12.60;;;;;;;;;;5111855;28;20031;-70
2024/03/07 03:40:10;;;;;;;24.53;12.03;;;;;;;;;;5092886;28;20024;-68
2024/03/07 03:42:40;;;;;;;24.10;11.73;;;;;;;;;;5091912;28;20023;-69
2024/03/07 03:45:07;;;;;;;24.27;12.20;;;;;;;;;;5091928;28;20031;-69
2024/03/07 03:47:37;;;;;;;24.80;12.23;;;;;;;;;;5092087;28;20108;-70
2024/03/07 03:50:03;;;;;;;24.17;12.47;;;;;;;;;;5091666;28;20023;-69
2024/03/07 03:52:29;;;;;;;25.10;12.20;;;;;;;;;;5110258;28;20034;-70
2024/03/07 03:54:56;;;;;;;24.20;11.90;;;;;;;;;;5092024;28;20027;-68
2024/03/07 03:57:22;;;;;;;23.73;11.73;;;;;;;;;;5110192;28;20027;-69
2024/03/07 03:59:48;;;;;;;23.40;12.20;;;;;;;;;;5092044;28;20383;-69
2024/03/07 04:02:13;;;;;;;23.83;11.60;;;;;;;;;;5110618;28;20019;-68
2024/03/07 04:04:40;;;;;;;20.67;11.33;;;;;;;;;;5091865;28;20501;-70
2024/03/07 04:07:05;;;;;;;22.33;12.90;;;;;;;;;;5092005;28;20034;-70
2024/03/07 04:09:31;;;;;;;23.17;11.83;;;;;;;;;;5094365;28;20020;-68
2024/03/07 04:12:00;;;;;;;25.30;11.20;;;;;;;;;;5096343;28;20019;-69
2024/03/07 04:14:26;;;;;;;27.07;12.20;;;;;;;;;;5111886;28;20413;-69
2024/03/07 04:16:56;;;;;;;24.63;11.37;;;;;;;;;;5091946;28;20114;-69
2024/03/07 04:19:23;;;;;;;28.17;11.83;;;;;;;;;;5091655;28;20115;-71
2024/03/07 04:21:49;;;;;;;22.17;11.93;;;;;;;;;;5110248;28;20027;-69
2024/03/07 04:24:14;;;;;;;23.53;11.80;;;;;;;;;;5091811;28;20019;-69
2024/03/07 04:26:43;;;;;;;23.70;13.10;;;;;;;;;;5091424;28;20405;-69
2024/03/07 04:29:08;;;;;;;22.63;12.20;;;;;;;;;;5110208;28;20028;-70
2024/03/07 04:31:34;;;;;;;20.33;11.33;;;;;;;;;;5091366;28;20023;-69
2024/03/07 04:34:00;;;;;;;26.77;12.13;;;;;;;;;;5109992;28;20023;-69
2024/03/07 04:36:25;;;;;;;26.80;12.03;;;;;;;;;;5109769;28;20513;-69
2024/03/07 04:38:52;;;;;;;20.97;12.10;;;;;;;;;;5109845;28;20019;-69
2024/03/07 04:41:18;;;;;;;23.50;12.57;;;;;;;;;;5110100;28;20023;-69
2024/03/07 04:43:45;;;;;;;19.67;11.10;;;;;;;;;;5109414;28;20024;-71
2024/03/07 04:46:10;;;;;;;19.57;11.10;;;;;;;;;;5109914;28;20122;-69
2024/03/07 04:48:37;;;;;;;21.70;11.23;;;;;;;;;;5091270;28;20531;-70
2024/03/07 04:51:03;;;;;;;20.00;10.87;;;;;;;;;;5091218;28;20441;-69
2024/03/07 04:53:29;;;;;;;19.87;10.63;;;;;;;;;;5109951;28;20051;-70
2024/03/07 04:55:54;;;;;;;21.00;12.20;;;;;;;;;;5109593;28;20055;-70
2024/03/07 04:58:20;;;;;;;18.93;10.63;;;;;;;;;;5109231;28;20543;-68
2024/03/07 05:00:46;;;;;;;22.40;11.53;;;;;;;;;;5091540;28;20088;-71
2024/03/07 05:03:12;;;;;;;22.77;11.57;;;;;;;;;;5094241;28;20106;-70
2024/03/07 05:05:40;;;;;;;24.10;10.17;;;;;;;;;;5113339;28;20127;-69
2024/03/07 05:08:06;;;;;;;19.50;10.13;;;;;;;;;;5095663;28;20023;-70
2024/03/07 05:10:32;;;;;;;18.63;9.87;;;;;;;;;;5096883;28;20034;-70
2024/03/07 05:12:58;;;;;;;20.23;10.83;;;;;;;;;;5100068;28;20081;-71
2024/03/07 05:15:25;;;;;;;19.00;9.90;;;;;;;;;;5117539;28;20015;-69
2024/03/07 05:17:52;;;;;;;17.00;9.73;;;;;;;;;;5099403;28;20031;-70
2024/03/07 05:20:18;;;;;;;20.33;9.17;;;;;;;;;;5117336;28;20031;-68
2024/03/07 05:23:05;;;;;;;18.30;9.17;;;;;;;;;;5097846;28;20100;-69
2024/03/07 05:25:30;;;;;;;18.33;9.37;;;;;;;;;;5094663;28;20035;-70
2024/03/07 05:27:56;;;;;;;21.17;9.83;;;;;;;;;;5113417;28;20046;-70
2024/03/07 05:30:25;;;;;;;20.30;9.70;;;;;;;;;;5113179;28;20034;-71
2024/03/07 05:32:51;;;;;;;18.03;9.20;;;;;;;;;;5094844;28;20395;-69
2024/03/07 05:35:16;;;;;;;20.33;9.63;;;;;;;;;;5113304;28;20206;-70
2024/03/07 05:37:46;;;;;;;23.17;10.37;;;;;;;;;;5113088;28;20164;-69
2024/03/07 05:40:13;;;;;;;18.63;9.70;;;;;;;;;;5113111;28;20022;-69
2024/03/07 05:42:38;;;;;;;20.13;10.13;;;;;;;;;;5094441;28;20411;-70
2024/03/07 05:45:07;;;;;;;22.40;10.00;;;;;;;;;;5112764;28;20024;-69
2024/03/07 05:47:33;;;;;;;18.50;9.77;;;;;;;;;;5112606;28;20035;-68
2024/03/07 05:49:59;;;;;;;16.73;9.27;;;;;;;;;;5094443;28;20027;-69
2024/03/07 05:52:24;;;;;;;19.43;9.97;;;;;;;;;;5094435;28;20035;-69
2024/03/07 05:54:51;;;;;;;17.73;9.30;;;;;;;;;;5094254;28;20122;-70
2024/03/07 05:57:17;;;;;;;18.97;9.80;;;;;;;;;;5077714;28;20031;-69
2024/03/07 05:59:42;;;;;;;15.63;8.67;;;;;;;;;;5112585;28;20020;-69
2024/03/07 06:02:09;;;;;;;21.80;9.83;;;;;;;;;;5112775;28;20503;-69
2024/03/07 06:04:50;;;;;;;21.77;10.80;;;;;;;;;;5112020;28;20052;-71
2024/03/07 06:07:16;;;;;;;21.00;9.63;;;;;;;;;;5093985;28;20184;-70
2024/03/07 06:09:41;;;;;;;18.13;9.57;;;;;;;;;;5111919;28;20073;-73
2024/03/07 06:12:08;;;;;;;16.07;8.20;;;;;;;;;;5112618;28;20027;-69
2024/03/07 06:14:35;;;;;;;22.07;9.73;;;;;;;;;;5112029;28;20020;-70
2024/03/07 06:17:03;;;;;;;20.13;9.07;;;;;;;;;;5093920;28;20038;-69
2024/03/07 06:19:30;;;;;;;16.80;9.53;;;;;;;;;;5093640;28;20023;-70
2024/03/07 06:21:56;;;;;;;20.30;10.00;;;;;;;;;;5111823;28;20096;-69
2024/03/07 06:24:23;;;;;;;17.63;8.73;;;;;;;;;;5093297;28;20055;-70
2024/03/07 06:26:59;;;;;;;21.27;8.40;;;;;;;;;;5111796;28;20124;-70
2024/03/07 06:29:27;;;;;;;17.90;9.23;;;;;;;;;;5113031;28;20098;-69
2024/03/07 06:31:54;;;;;;;21.53;10.67;;;;;;;;;;5094526;28;20050;-70
2024/03/07 06:34:20;;;;;;;23.77;10.93;;;;;;;;;;5112430;28;20495;-71
2024/03/07 06:36:46;;;;;;;27.37;11.60;;;;;;;;;;5093454;28;20066;-70
2024/03/07 06:39:11;;;;;;;22.07;10.97;;;;;;;;;;5112162;28;20100;-70
2024/03/07 06:41:38;;;;;;;25.33;11.93;;;;;;;;;;5094027;28;20491;-70
2024/03/07 06:44:04;;;;;;;24.40;11.80;;;;;;;;;;5112072;28;20105;-71
2024/03/07 06:46:30;;;;;;;34.20;12.40;;;;;;;;;;5093146;28;20047;-71
2024/03/07 06:48:57;;;;;;;24.73;11.50;;;;;;;;;;5093005;28;20115;-69
2024/03/07 06:51:24;;;;;;;26.50;11.33;;;;;;;;;;5111485;28;20039;-68
2024/03/07 06:53:50;;;;;;;21.70;10.30;;;;;;;;;;5096362;27;20570;-68
2024/03/07 06:56:16;;;;;;;24.40;10.93;;;;;;;;;;5131764;27;20019;-69
2024/03/07 06:58:42;;;;;;;25.30;11.87;;;;;;;;;;5131528;27;20416;-69
2024/03/07 07:01:10;;;;;;;24.03;11.90;;;;;;;;;;5131312;27;20106;-71
2024/03/07 07:03:39;;;;;;;22.73;10.93;;;;;;;;;;5111955;27;20405;-71
2024/03/07 07:06:07;;;;;;;23.13;11.10;;;;;;;;;;5130353;27;20426;-70
2024/03/07 07:08:33;;;;;;;20.83;10.83;;;;;;;;;;5130396;27;20034;-70
2024/03/07 07:10:59;;;;;;;18.97;9.70;;;;;;;;;;5112011;27;20493;-70
2024/03/07 07:13:25;;;;;;;27.27;11.57;;;;;;;;;;5081242;28;20415;-70
2024/03/07 07:15:51;;;;;;;19.63;10.00;;;;;;;;;;5107983;28;20028;-70
2024/03/07 07:18:17;;;;;;;20.07;10.47;;;;;;;;;;5110311;28;20476;-70
2024/03/07 07:20:43;;;;;;;24.90;10.80;;;;;;;;;;5090467;28;20069;-69
2024/03/07 07:23:10;;;;;;;18.67;9.70;;;;;;;;;;5120391;27;20458;-71
2024/03/07 07:25:36;;;;;;;22.13;10.63;;;;;;;;;;5130114;27;20027;-69
2024/03/07 07:28:04;;;;;;;30.33;12.40;;;;;;;;;;5075905;28;20527;-71
2024/03/07 07:30:30;;;;;;;19.13;10.03;;;;;;;;;;5108736;28;20034;-72
2024/03/07 07:32:56;;;;;;;23.13;9.30;;;;;;;;;;5093585;28;20386;-70
2024/03/07 07:35:23;;;;;;;22.53;10.93;;;;;;;;;;5105997;28;20039;-70
2024/03/07 07:37:55;;;;;;;22.17;11.53;;;;;;;;;;5090699;28;20547;-70
2024/03/07 07:40:22;;;;;;;17.73;9.10;;;;;;;;;;5112388;27;20466;-71
2024/03/07 07:42:51;;;;;;;20.60;8.83;;;;;;;;;;5115592;27;20088;-70
2024/03/07 07:45:20;;;;;;;18.07;8.93;;;;;;;;;;5098404;27;20039;-70
2024/03/07 07:47:48;;;;;;;20.77;9.17;;;;;;;;;;5113941;27;20028;-72
2024/03/07 07:50:19;;;;;;;22.97;11.47;;;;;;;;;;5104452;28;20244;-72
2024/03/07 07:52:49;;;;;;;19.47;9.00;;;;;;;;;;5108810;28;20063;-70
2024/03/07 07:55:16;;;;;;;17.47;9.47;;;;;;;;;;5123378;27;20035;-70
2024/03/07 07:57:43;;;;;;;22.13;9.80;;;;;;;;;;5129078;27;20037;-71
2024/03/07 08:00:10;;;;;;;18.17;10.00;;;;;;;;;;5089886;28;20023;-71
2024/03/07 08:02:37;;;;;;;22.37;10.27;;;;;;;;;;5090656;28;20034;-69
2024/03/07 08:05:05;;;;;;;27.57;9.50;;;;;;;;;;5086785;28;20047;-69
2024/03/07 08:07:31;;;;;;;21.10;9.50;;;;;;;;;;5078732;28;20071;-72
2024/03/07 08:09:57;;;;;;;21.60;9.37;;;;;;;;;;5078589;28;20336;-71
2024/03/07 08:12:22;;;;;;;22.27;10.27;;;;;;;;;;5092907;28;20398;-69
2024/03/07 08:14:48;;;;;;;27.77;14.03;;;;;;;;;;5077933;28;20036;-71
2024/03/07 08:17:13;;;;;;;21.90;11.13;;;;;;;;;;5091934;28;20064;-68
2024/03/07 08:19:39;;;;;;;19.10;10.40;;;;;;;;;;5092952;28;20028;-70
2024/03/07 08:22:05;;;;;;;20.63;9.80;;;;;;;;;;5096528;28;20050;-71
2024/03/07 08:24:33;;;;;;;19.27;9.93;;;;;;;;;;5092182;28;20032;-71
2024/03/07 08:26:59;;;;;;;25.10;10.63;;;;;;;;;;5090887;28;20028;-69
2024/03/07 08:29:24;;;;;;;18.27;9.40;;;;;;;;;;5092021;28;20039;-72
2024/03/07 08:31:50;;;;;;;17.27;9.07;;;;;;;;;;5095279;28;20460;-71
2024/03/07 08:34:16;;;;;;;26.37;10.83;;;;;;;;;;5098534;28;20410;-71
2024/03/07 08:36:42;;;;;;;21.73;9.60;;;;;;;;;;5095317;28;20039;-70
2024/03/07 08:39:10;;;;;;;23.25;11.07;;;;;;;;;;5085699;28;20122;-70
2024/03/07 08:41:40;;;;;;;20.93;10.23;;;;;;;;;;5102493;28;20527;-71
2024/03/07 08:44:06;;;;;;;24.38;11.43;;;;;;;;;;5085487;28;20027;-71
2024/03/07 08:46:33;;;;;;;19.10;10.47;;;;;;;;;;5089651;28;20055;-71
2024/03/07 08:48:59;;;;;;;25.52;10.93;;;;;;;;;;5096280;28;20036;-70
2024/03/07 08:51:25;;;;;;;28.23;12.40;;;;;;;;;;5100397;28;20519;-71
2024/03/07 08:53:50;;;;;;;21.63;10.23;;;;;;;;;;5088938;28;20070;-71
2024/03/07 08:56:16;;;;;;;18.40;9.65;;;;;;;;;;5089020;28;20031;-70
2024/03/07 08:58:43;;;;;;;19.70;10.57;;;;;;;;;;5093830;28;20028;-70
2024/03/07 09:01:10;;;;;;;21.63;10.50;;;;;;;;;;5100680;28;20035;-71
2024/03/07 09:03:36;;;;;;;24.52;12.27;;;;;;;;;;5103049;28;20042;-70
2024/03/07 09:06:02;;;;;;;26.67;12.88;;;;;;;;;;5113899;27;20048;-69
2024/03/07 09:08:29;;;;;;;19.65;11.68;;;;;;;;;;5114150;27;20491;-71
2024/03/07 09:10:55;;;;;;;21.23;10.02;;;;;;;;;;5115020;27;20549;-69
2024/03/07 09:13:21;;;;;;;23.65;10.70;;;;;;;;;;5121197;27;20375;-70
2024/03/07 09:15:47;;;;;;;28.33;11.82;;;;;;;;;;5100103;27;20478;-69
2024/03/07 09:18:13;;;;;;;22.33;11.95;;;;;;;;;;5122574;27;20111;-69
2024/03/07 09:20:38;;;;;;;22.42;10.95;;;;;;;;;;5118000;27;20015;-70
2024/03/07 09:23:05;;;;;;;20.92;11.95;;;;;;;;;;5100173;27;20382;-71
2024/03/07 09:25:32;;;;;;;20.48;10.07;;;;;;;;;;5119152;27;20027;-70
2024/03/07 09:28:00;;;;;;;21.40;10.82;;;;;;;;;;5116974;27;20035;-70
2024/03/07 09:30:27;;;;;;;19.33;10.90;;;;;;;;;;5091506;27;20031;-71
2024/03/07 09:32:58;;;;;;;24.33;11.05;;;;;;;;;;5090576;27;20032;-68
2024/03/07 09:35:23;;;;;;;22.73;11.18;;;;;;;;;;5091778;27;20491;-70
2024/03/07 09:37:50;;;;;;;25.48;11.45;;;;;;;;;;5098133;27;20111;-70
2024/03/07 09:40:16;;;;;;;22.58;11.40;;;;;;;;;;5113669;27;20112;-70
2024/03/07 09:42:45;;;;;;;24.70;11.57;;;;;;;;;;5081436;27;20064;-69
2024/03/07 09:45:19;;;;;;;25.30;11.32;;;;;;;;;;5091803;27;20216;-71
2024/03/07 09:47:53;;;;;;;22.35;11.75;;;;;;;;;;5099559;27;20031;-70
2024/03/07 09:50:24;;;;;;;21.95;11.40;;;;;;;;;;5093404;27;20051;-70
2024/03/07 09:52:52;;;;;;;27.83;12.23;;;;;;;;;;5091269;27;20215;-69
2024/03/07 09:55:20;;;;;;;22.63;10.70;;;;;;;;;;5113570;27;20043;-71
2024/03/07 09:57:50;;;;;;;22.75;11.20;;;;;;;;;;5119629;27;20031;-69
2024/03/07 10:00:25;;;;;;;20.88;10.80;;;;;;;;;;5104305;27;20031;-70
2024/03/07 10:02:58;;;;;;;21.83;10.65;;;;;;;;;;5103001;27;20035;-71
2024/03/07 10:05:26;;;;;;;23.65;11.82;;;;;;;;;;5093499;27;20055;-71
2024/03/07 10:07:52;;;;;;;20.45;11.15;;;;;;;;;;5103940;27;20381;-71
2024/03/07 10:10:19;;;;;;;20.42;11.02;;;;;;;;;;5122800;27;20020;-71
2024/03/07 10:12:46;;;;;;;21.25;10.60;;;;;;;;;;5096856;27;20191;-71
2024/03/07 10:15:13;;;;;;;23.02;11.15;;;;;;;;;;5114635;27;20386;-70
2024/03/07 10:17:41;;;;;;;27.63;11.50;;;;;;;;;;5117126;27;20036;-70
2024/03/07 10:20:13;;;;;;;20.73;11.50;;;;;;;;;;5110738;27;20027;-70
2024/03/07 10:22:39;;;;;;;21.92;11.77;;;;;;;;;;5112088;27;20107;-69
2024/03/07 10:25:05;;;;;;;26.08;11.60;;;;;;;;;;5112126;27;20467;-70
2024/03/07 10:27:31;;;;;;;22.40;11.00;;;;;;;;;;5118869;27;20027;-71
2024/03/07 10:29:56;;;;;;;24.10;11.40;;;;;;;;;;5094053;27;20405;-70
2024/03/07 10:32:23;;;;;;;23.30;11.20;;;;;;;;;;5117656;27;20402;-68
2024/03/07 10:34:53;;;;;;;22.20;11.43;;;;;;;;;;5117833;27;20049;-72
2024/03/07 10:37:21;;;;;;;17.97;11.17;;;;;;;;;;5102140;27;20064;-69
2024/03/07 10:39:49;;;;;;;20.52;10.23;;;;;;;;;;5105392;27;20015;-71
2024/03/07 10:42:16;;;;;;;21.58;11.23;;;;;;;;;;5123121;27;20030;-70
2024/03/07 10:44:47;;;;;;;20.25;10.88;;;;;;;;;;5099739;28;20115;-71
2024/03/07 10:47:17;;;;;;;20.40;9.68;;;;;;;;;;5099264;27;20038;-71
2024/03/07 10:50:04;;;;;;;17.63;9.70;;;;;;;;;;5106802;27;20050;-69
2024/03/07 10:52:52;;;;;;;21.15;9.85;;;;;;;;;;5086719;28;20031;-72
2024/03/07 10:55:28;;;;;;;19.90;10.30;;;;;;;;;;5076943;28;20035;-71
2024/03/07 10:58:02;;;;;;;22.27;10.48;;;;;;;;;;5109113;27;20179;-71
2024/03/07 11:00:35;;;;;;;21.48;10.95;;;;;;;;;;5107635;27;20073;-72
2024/03/07 11:03:07;;;;;;;18.40;9.40;;;;;;;;;;5087977;27;20036;-71
2024/03/07 11:05:33;;;;;;;18.83;10.57;;;;;;;;;;5107871;27;20044;-71
2024/03/07 11:08:11;;;;;;;21.02;9.40;;;;;;;;;;5107710;27;20038;-72
2024/03/07 11:10:37;;;;;;;17.77;9.65;;;;;;;;;;5083392;28;20114;-71
2024/03/07 11:13:12;;;;;;;17.73;9.60;;;;;;;;;;5087152;28;20081;-70
2024/03/07 11:15:42;;;;;;;19.00;11.35;;;;;;;;;;5106362;27;20043;-70
2024/03/07 11:18:09;;;;;;;23.90;10.23;;;;;;;;;;5069289;28;20058;-71
2024/03/07 11:20:37;;;;;;;19.35;11.20;;;;;;;;;;5088976;27;20376;-71
2024/03/07 11:23:26;;;;;;;20.90;10.27;;;;;;;;;;5085874;28;20036;-70
2024/03/07 11:25:55;;;;;;;22.90;10.02;;;;;;;;;;5081560;28;20032;-74
2024/03/07 11:28:29;;;;;;;19.02;10.63;;;;;;;;;;5093589;27;20031;-70
2024/03/07 11:30:55;;;;;;;17.52;9.50;;;;;;;;;;5103869;27;20104;-71
2024/03/07 11:33:20;;;;;;;19.45;9.60;;;;;;;;;;5090926;28;20028;-69
2024/03/07 11:35:49;;;;;;;18.83;9.23;;;;;;;;;;5103661;27;20455;-72
2024/03/07 11:38:15;;;;;;;18.33;9.77;;;;;;;;;;5085157;27;20388;-69
2024/03/07 11:40:43;;;;;;;18.70;9.10;;;;;;;;;;5099121;27;20032;-70
2024/03/07 11:43:12;;;;;;;22.17;10.82;;;;;;;;;;5102885;28;20071;-69
2024/03/07 11:45:52;;;;;;;28.58;10.55;;;;;;;;;;5103661;27;20656;-70
2024/03/07 11:48:20;;;;;;;19.85;10.40;;;;;;;;;;5094934;28;20395;-73
2024/03/07 11:50:50;;;;;;;22.95;11.15;;;;;;;;;;5105709;27;20039;-70
2024/03/07 11:53:17;;;;;;;21.17;9.77;;;;;;;;;;5086194;28;20034;-71
2024/03/07 11:55:46;;;;;;;18.08;9.32;;;;;;;;;;5086787;28;20058;-70
2024/03/07 11:58:16;;;;;;;18.98;9.38;;;;;;;;;;5096528;28;20453;-69
2024/03/07 12:00:46;;;;;;;21.33;9.95;;;;;;;;;;5098553;28;20027;-72
2024/03/07 12:03:22;;;;;;;19.48;10.15;;;;;;;;;;5085934;28;20040;-70
2024/03/07 12:05:52;;;;;;;19.38;9.80;;;;;;;;;;5088417;28;20450;-70
2024/03/07 12:08:19;;;;;;;20.83;9.60;;;;;;;;;;5098802;28;20046;-69
2024/03/07 12:10:45;;;;;;;24.33;10.70;;;;;;;;;;5121266;27;20031;-72
2024/03/07 12:13:11;;;;;;;17.75;9.32;;;;;;;;;;5125061;27;20031;-72
2024/03/07 12:15:41;;;;;;;21.50;10.27;;;;;;;;;;5124690;27;20531;-71
2024/03/07 12:18:08;;;;;;;20.63;10.13;;;;;;;;;;5097397;27;20479;-70
2024/03/07 12:20:38;;;;;;;18.70;9.27;;;;;;;;;;5091368;27;20058;-72
2024/03/07 12:23:07;;;;;;;19.73;10.35;;;;;;;;;;5117368;27;20034;-71
2024/03/07 12:25:36;;;;;;;25.48;11.10;;;;;;;;;;5099813;27;20397;-72
2024/03/07 12:28:05;;;;;;;18.20;9.32;;;;;;;;;;5102305;27;20120;-71
2024/03/07 12:30:34;;;;;;;15.80;8.82;;;;;;;;;;5125396;27;20041;-71
2024/03/07 12:33:04;;;;;;;18.58;9.30;;;;;;;;;;5080117;27;20036;-72
2024/03/07 12:35:32;;;;;;;16.97;10.37;;;;;;;;;;5099666;27;20475;-72
2024/03/07 12:37:59;;;;;;;21.35;10.15;;;;;;;;;;5107114;27;20046;-71
2024/03/07 12:40:28;;;;;;;19.33;10.23;;;;;;;;;;5125088;27;20435;-69
2024/03/07 12:42:54;;;;;;;21.13;10.20;;;;;;;;;;5109459;27;20497;-70
2024/03/07 12:45:20;;;;;;;19.00;10.00;;;;;;;;;;5104625;27;20076;-70
2024/03/07 12:47:53;;;;;;;17.67;9.13;;;;;;;;;;5114414;27;20034;-69
2024/03/07 12:50:22;;;;;;;23.27;10.00;;;;;;;;;;5132385;27;20035;-70
2024/03/07 12:52:52;;;;;;;18.67;8.88;;;;;;;;;;5111332;27;20023;-71
2024/03/07 12:55:18;;;;;;;18.23;9.45;;;;;;;;;;5111369;28;20435;-73
2024/03/07 12:57:44;;;;;;;19.13;9.85;;;;;;;;;;5131438;27;20023;-70
2024/03/07 13:00:18;;;;;;;19.27;9.43;;;;;;;;;;5099691;27;20034;-69
2024/03/07 13:02:46;;;;;;;16.53;9.00;;;;;;;;;;5128256;27;20027;-71
2024/03/07 13:05:29;;;;;;;19.05;8.93;;;;;;;;;;5104677;28;20047;-73
2024/03/07 13:07:55;;;;;;;21.50;9.68;;;;;;;;;;5104431;27;20059;-69
2024/03/07 13:10:20;;;;;;;22.80;10.07;;;;;;;;;;5096523;27;20176;-71
2024/03/07 13:12:50;;;;;;;21.30;10.13;;;;;;;;;;5114182;27;20031;-72
2024/03/07 13:15:16;;;;;;;19.05;9.90;;;;;;;;;;5095735;27;20026;-71
2024/03/07 13:17:42;;;;;;;16.33;9.85;;;;;;;;;;5101440;27;20027;-71
2024/03/07 13:20:16;;;;;;;21.35;10.38;;;;;;;;;;5098551;28;20483;-71
2024/03/07 13:22:42;;;;;;;17.73;9.40;;;;;;;;;;5110387;27;20038;-73
2024/03/07 13:25:16;;;;;;;17.98;9.43;;;;;;;;;;5096279;27;20038;-72
2024/03/07 13:28:07;;;;;;;22.85;10.43;;;;;;;;;;5093416;28;20382;-71
2024/03/07 13:30:35;;;;;;;17.63;9.80;;;;;;;;;;5107092;27;20073;-70
2024/03/07 13:33:05;;;;;;;19.88;10.18;;;;;;;;;;5088925;27;20058;-73
2024/03/07 13:35:31;;;;;;;17.52;9.60;;;;;;;;;;5098161;27;20031;-69
2024/03/07 13:37:57;;;;;;;20.08;10.02;;;;;;;;;;5092510;27;20046;-71
2024/03/07 13:40:24;;;;;;;23.52;9.93;;;;;;;;;;5094483;27;20430;-73
2024/03/07 13:43:00;;;;;;;21.67;11.23;;;;;;;;;;5107734;27;20070;-71
2024/03/07 13:45:30;;;;;;;18.58;9.43;;;;;;;;;;5110182;27;20119;-71
2024/03/07 13:47:58;;;;;;;21.67;10.18;;;;;;;;;;5080930;28;20384;-70
2024/03/07 13:50:30;;;;;;;22.05;10.85;;;;;;;;;;5093088;27;20035;-69
2024/03/07 13:53:18;;;;;;;17.65;9.40;;;;;;;;;;5111215;27;20161;-70
2024/03/07 13:56:14;;;;;;;19.63;10.70;;;;;;;;;;5106387;27;20107;-70
2024/03/07 13:59:07;;;;;;;17.83;9.57;;;;;;;;;;5098115;28;20053;-69
2024/03/07 14:02:23;;;;;;;21.42;10.07;;;;;;;;;;5090153;27;20754;-69
2024/03/07 14:05:31;;;;;;;23.30;10.55;;;;;;;;;;5033991;27;20407;-70
2024/03/07 14:08:14;;;;;;;21.15;10.07;;;;;;;;;;5096270;27;20114;-71
2024/03/07 14:11:12;;;;;;;18.27;9.63;;;;;;;;;;5109551;27;20096;-71
2024/03/07 14:14:25;;;;;;;21.65;9.98;;;;;;;;;;5087273;27;20265;-73
2024/03/07 14:17:19;;;;;;;17.70;9.45;;;;;;;;;;5094321;27;20043;-72
2024/03/07 14:20:18;;;;;;;19.58;10.38;;;;;;;;;;5105948;27;20143;-72
2024/03/07 14:23:06;;;;;;;16.85;8.77;;;;;;;;;;5108210;27;20440;-72
2024/03/07 14:26:06;;;;;;;17.17;9.40;;;;;;;;;;5096171;27;20027;-69
2024/03/07 14:28:41;;;;;;;17.92;9.18;;;;;;;;;;5121119;27;20055;-70
2024/03/07 14:31:11;;;;;;;16.15;8.50;;;;;;;;;;5098155;28;20133;-72